sensor_id;sensor_type;location;lat;lon;timestamp;P1;durP1;ratioP1;P2;durP2;ratioP2
13985;SDS011;7067;51.832;8.296;2023-04-03T00:02:02;14.97;;;2.20;;
13985;SDS011;7067;51.832;8.296;2023-04-03T00:04:27;4.67;;;1.50;;
13985;SDS011;7067;51.832;8.296;2023-04-03T00:06:53;6.13;;;2.00;;
13985;SDS011;7067;51.832;8.296;2023-04-03T00:09:18;5.70;;;2.10;;
13985;SDS011;7067;51.832;8.296;2023-04-03T00:11:43;7.60;;;1.50;;
13985;SDS011;7067;51.832;8.296;2023-04-03T00:14:09;9.63;;;2.37;;
13985;SDS011;7067;51.832;8.296;2023-04-03T00:16:34;5.20;;;2.00;;
13985;SDS011;7067;51.832;8.296;2023-04-03T00:19:00;28.67;;;2.40;;
13985;SDS011;7067;51.832;8.296;2023-04-03T00:21:25;5.77;;;1.90;;
13985;SDS011;7067;51.832;8.296;2023-04-03T00:23:51;4.93;;;2.03;;
13985;SDS011;7067;51.832;8.296;2023-04-03T00:26:16;4.57;;;2.03;;
13985;SDS011;7067;51.832;8.296;2023-04-03T00:28:41;3.07;;;1.57;;
13985;SDS011;7067;51.832;8.296;2023-04-03T00:31:07;4.73;;;2.13;;
13985;SDS011;7067;51.832;8.296;2023-04-03T00:33:32;25.27;;;3.77;;
13985;SDS011;7067;51.832;8.296;2023-04-03T00:35:57;3.30;;;1.60;;
13985;SDS011;7067;51.832;8.296;2023-04-03T00:38:23;3.17;;;1.47;;
13985;SDS011;7067;51.832;8.296;2023-04-03T00:40:48;7.83;;;2.47;;
13985;SDS011;7067;51.832;8.296;2023-04-03T00:43:15;4.33;;;1.90;;
13985;SDS011;7067;51.832;8.296;2023-04-03T00:45:44;5.90;;;1.90;;
13985;SDS011;7067;51.832;8.296;2023-04-03T00:48:13;3.50;;;1.60;;
13985;SDS011;7067;51.832;8.296;2023-04-03T00:50:41;3.60;;;1.55;;
13985;SDS011;7067;51.832;8.296;2023-04-03T00:53:08;19.57;;;2.60;;
13985;SDS011;7067;51.832;8.296;2023-04-03T00:55:36;4.23;;;1.40;;
13985;SDS011;7067;51.832;8.296;2023-04-03T00:58:03;5.70;;;1.60;;
13985;SDS011;7067;51.832;8.296;2023-04-03T01:00:29;4.93;;;1.57;;
13985;SDS011;7067;51.832;8.296;2023-04-03T01:02:54;4.03;;;1.60;;
13985;SDS011;7067;51.832;8.296;2023-04-03T01:05:20;5.37;;;1.80;;
13985;SDS011;7067;51.832;8.296;2023-04-03T01:07:46;4.93;;;2.57;;
13985;SDS011;7067;51.832;8.296;2023-04-03T01:10:13;3.63;;;1.30;;
13985;SDS011;7067;51.832;8.296;2023-04-03T01:12:41;3.20;;;1.80;;
13985;SDS011;7067;51.832;8.296;2023-04-03T01:15:12;3.93;;;1.67;;
13985;SDS011;7067;51.832;8.296;2023-04-03T01:17:41;3.03;;;1.37;;
13985;SDS011;7067;51.832;8.296;2023-04-03T01:20:24;5.83;;;1.97;;
13985;SDS011;7067;51.832;8.296;2023-04-03T01:23:04;8.37;;;2.10;;
13985;SDS011;7067;51.832;8.296;2023-04-03T01:25:40;5.75;;;1.70;;
13985;SDS011;7067;51.832;8.296;2023-04-03T01:30:33;5.80;;;2.00;;
13985;SDS011;7067;51.832;8.296;2023-04-03T01:33:00;4.57;;;1.53;;
13985;SDS011;7067;51.832;8.296;2023-04-03T01:35:25;4.07;;;1.67;;
13985;SDS011;7067;51.832;8.296;2023-04-03T01:37:51;6.50;;;2.03;;
13985;SDS011;7067;51.832;8.296;2023-04-03T01:40:16;3.73;;;1.67;;
13985;SDS011;7067;51.832;8.296;2023-04-03T01:42:41;4.10;;;1.83;;
13985;SDS011;7067;51.832;8.296;2023-04-03T01:45:07;9.00;;;2.80;;
13985;SDS011;7067;51.832;8.296;2023-04-03T01:47:33;6.33;;;2.27;;
13985;SDS011;7067;51.832;8.296;2023-04-03T01:49:58;5.83;;;2.00;;
13985;SDS011;7067;51.832;8.296;2023-04-03T01:52:23;5.97;;;2.13;;
13985;SDS011;7067;51.832;8.296;2023-04-03T01:54:49;5.37;;;1.60;;
13985;SDS011;7067;51.832;8.296;2023-04-03T01:57:15;4.70;;;2.30;;
13985;SDS011;7067;51.832;8.296;2023-04-03T01:59:41;4.93;;;1.97;;
13985;SDS011;7067;51.832;8.296;2023-04-03T02:02:06;7.90;;;3.00;;
13985;SDS011;7067;51.832;8.296;2023-04-03T02:04:32;5.90;;;2.30;;
13985;SDS011;7067;51.832;8.296;2023-04-03T02:06:57;4.87;;;2.30;;
13985;SDS011;7067;51.832;8.296;2023-04-03T02:09:22;5.43;;;1.90;;
13985;SDS011;7067;51.832;8.296;2023-04-03T02:11:48;5.87;;;1.83;;
13985;SDS011;7067;51.832;8.296;2023-04-03T02:14:13;5.40;;;1.67;;
13985;SDS011;7067;51.832;8.296;2023-04-03T02:16:38;6.40;;;2.10;;
13985;SDS011;7067;51.832;8.296;2023-04-03T02:19:04;5.17;;;2.20;;
13985;SDS011;7067;51.832;8.296;2023-04-03T02:21:29;18.57;;;2.73;;
13985;SDS011;7067;51.832;8.296;2023-04-03T02:23:55;7.33;;;2.10;;
13985;SDS011;7067;51.832;8.296;2023-04-03T02:26:20;3.93;;;1.57;;
13985;SDS011;7067;51.832;8.296;2023-04-03T02:28:46;7.20;;;2.50;;
13985;SDS011;7067;51.832;8.296;2023-04-03T02:31:11;5.17;;;1.90;;
13985;SDS011;7067;51.832;8.296;2023-04-03T02:33:37;6.57;;;2.73;;
13985;SDS011;7067;51.832;8.296;2023-04-03T02:36:03;6.80;;;2.43;;
13985;SDS011;7067;51.832;8.296;2023-04-03T02:38:29;5.20;;;2.27;;
13985;SDS011;7067;51.832;8.296;2023-04-03T02:41:02;7.27;;;2.00;;
13985;SDS011;7067;51.832;8.296;2023-04-03T02:43:28;3.57;;;1.97;;
13985;SDS011;7067;51.832;8.296;2023-04-03T02:45:53;4.50;;;1.87;;
13985;SDS011;7067;51.832;8.296;2023-04-03T02:48:19;7.03;;;2.07;;
13985;SDS011;7067;51.832;8.296;2023-04-03T02:50:44;6.93;;;2.20;;
13985;SDS011;7067;51.832;8.296;2023-04-03T02:53:10;4.17;;;2.20;;
13985;SDS011;7067;51.832;8.296;2023-04-03T02:55:35;7.00;;;1.87;;
13985;SDS011;7067;51.832;8.296;2023-04-03T02:58:00;8.00;;;2.00;;
13985;SDS011;7067;51.832;8.296;2023-04-03T03:00:26;5.93;;;2.53;;
13985;SDS011;7067;51.832;8.296;2023-04-03T03:02:51;5.83;;;2.43;;
13985;SDS011;7067;51.832;8.296;2023-04-03T03:05:16;6.47;;;2.73;;
13985;SDS011;7067;51.832;8.296;2023-04-03T03:07:42;6.23;;;2.17;;
13985;SDS011;7067;51.832;8.296;2023-04-03T03:10:07;6.97;;;2.00;;
13985;SDS011;7067;51.832;8.296;2023-04-03T03:12:33;4.37;;;1.90;;
13985;SDS011;7067;51.832;8.296;2023-04-03T03:14:58;4.47;;;1.80;;
13985;SDS011;7067;51.832;8.296;2023-04-03T03:17:23;7.20;;;2.03;;
13985;SDS011;7067;51.832;8.296;2023-04-03T03:19:49;5.30;;;2.13;;
13985;SDS011;7067;51.832;8.296;2023-04-03T03:22:15;3.60;;;1.70;;
13985;SDS011;7067;51.832;8.296;2023-04-03T03:24:41;5.63;;;2.00;;
13985;SDS011;7067;51.832;8.296;2023-04-03T03:27:06;3.93;;;2.17;;
13985;SDS011;7067;51.832;8.296;2023-04-03T03:29:32;4.70;;;1.90;;
13985;SDS011;7067;51.832;8.296;2023-04-03T03:31:57;5.00;;;1.80;;
13985;SDS011;7067;51.832;8.296;2023-04-03T03:34:22;6.90;;;2.83;;
13985;SDS011;7067;51.832;8.296;2023-04-03T03:36:47;4.53;;;2.13;;
13985;SDS011;7067;51.832;8.296;2023-04-03T03:39:13;5.23;;;2.10;;
13985;SDS011;7067;51.832;8.296;2023-04-03T03:41:38;4.03;;;2.00;;
13985;SDS011;7067;51.832;8.296;2023-04-03T03:44:03;3.77;;;1.73;;
13985;SDS011;7067;51.832;8.296;2023-04-03T03:46:29;7.43;;;2.30;;
13985;SDS011;7067;51.832;8.296;2023-04-03T03:48:55;9.17;;;2.70;;
13985;SDS011;7067;51.832;8.296;2023-04-03T03:51:20;8.93;;;2.27;;
13985;SDS011;7067;51.832;8.296;2023-04-03T03:53:45;5.93;;;2.07;;
13985;SDS011;7067;51.832;8.296;2023-04-03T03:56:10;6.97;;;2.20;;
13985;SDS011;7067;51.832;8.296;2023-04-03T03:58:36;5.60;;;1.90;;
13985;SDS011;7067;51.832;8.296;2023-04-03T04:01:04;5.97;;;2.17;;
13985;SDS011;7067;51.832;8.296;2023-04-03T04:03:31;8.27;;;1.98;;
13985;SDS011;7067;51.832;8.296;2023-04-03T04:05:57;7.53;;;2.43;;
13985;SDS011;7067;51.832;8.296;2023-04-03T04:08:22;6.03;;;2.33;;
13985;SDS011;7067;51.832;8.296;2023-04-03T04:10:48;4.90;;;2.10;;
13985;SDS011;7067;51.832;8.296;2023-04-03T04:13:13;5.70;;;1.93;;
13985;SDS011;7067;51.832;8.296;2023-04-03T04:15:38;10.40;;;2.47;;
13985;SDS011;7067;51.832;8.296;2023-04-03T04:18:04;6.97;;;1.97;;
13985;SDS011;7067;51.832;8.296;2023-04-03T04:20:29;11.77;;;3.30;;
13985;SDS011;7067;51.832;8.296;2023-04-03T04:22:54;5.87;;;2.50;;
13985;SDS011;7067;51.832;8.296;2023-04-03T04:25:20;5.00;;;1.70;;
13985;SDS011;7067;51.832;8.296;2023-04-03T04:27:45;5.83;;;1.80;;
13985;SDS011;7067;51.832;8.296;2023-04-03T04:30:11;6.70;;;2.40;;
13985;SDS011;7067;51.832;8.296;2023-04-03T04:32:36;5.73;;;2.00;;
13985;SDS011;7067;51.832;8.296;2023-04-03T04:35:02;3.53;;;2.20;;
13985;SDS011;7067;51.832;8.296;2023-04-03T04:37:28;11.53;;;2.70;;
13985;SDS011;7067;51.832;8.296;2023-04-03T04:39:54;4.43;;;2.23;;
13985;SDS011;7067;51.832;8.296;2023-04-03T04:42:20;5.57;;;1.90;;
13985;SDS011;7067;51.832;8.296;2023-04-03T04:44:45;5.63;;;2.50;;
13985;SDS011;7067;51.832;8.296;2023-04-03T04:47:10;9.20;;;3.03;;
13985;SDS011;7067;51.832;8.296;2023-04-03T04:49:36;10.20;;;4.70;;
13985;SDS011;7067;51.832;8.296;2023-04-03T04:52:01;7.93;;;3.97;;
13985;SDS011;7067;51.832;8.296;2023-04-03T04:54:26;6.60;;;2.30;;
13985;SDS011;7067;51.832;8.296;2023-04-03T04:56:52;5.37;;;1.93;;
13985;SDS011;7067;51.832;8.296;2023-04-03T04:59:17;7.03;;;2.13;;
13985;SDS011;7067;51.832;8.296;2023-04-03T05:01:42;6.13;;;2.33;;
13985;SDS011;7067;51.832;8.296;2023-04-03T05:04:08;5.83;;;2.27;;
13985;SDS011;7067;51.832;8.296;2023-04-03T05:06:34;4.83;;;2.00;;
13985;SDS011;7067;51.832;8.296;2023-04-03T05:09:00;5.27;;;2.17;;
13985;SDS011;7067;51.832;8.296;2023-04-03T05:11:25;8.83;;;2.47;;
13985;SDS011;7067;51.832;8.296;2023-04-03T05:13:51;6.50;;;2.63;;
13985;SDS011;7067;51.832;8.296;2023-04-03T05:16:16;5.80;;;2.40;;
13985;SDS011;7067;51.832;8.296;2023-04-03T05:18:42;6.27;;;2.13;;
13985;SDS011;7067;51.832;8.296;2023-04-03T05:21:07;4.43;;;2.37;;
13985;SDS011;7067;51.832;8.296;2023-04-03T05:23:32;6.67;;;2.10;;
13985;SDS011;7067;51.832;8.296;2023-04-03T05:25:58;8.70;;;2.17;;
13985;SDS011;7067;51.832;8.296;2023-04-03T05:28:23;6.80;;;1.77;;
13985;SDS011;7067;51.832;8.296;2023-04-03T05:30:53;7.73;;;2.23;;
13985;SDS011;7067;51.832;8.296;2023-04-03T05:33:19;7.93;;;2.40;;
13985;SDS011;7067;51.832;8.296;2023-04-03T05:35:45;6.10;;;2.13;;
13985;SDS011;7067;51.832;8.296;2023-04-03T05:38:10;6.37;;;2.87;;
13985;SDS011;7067;51.832;8.296;2023-04-03T05:40:36;8.17;;;2.43;;
13985;SDS011;7067;51.832;8.296;2023-04-03T05:43:02;5.03;;;2.33;;
13985;SDS011;7067;51.832;8.296;2023-04-03T05:45:27;6.93;;;2.80;;
13985;SDS011;7067;51.832;8.296;2023-04-03T05:47:52;6.53;;;2.57;;
13985;SDS011;7067;51.832;8.296;2023-04-03T05:50:18;5.37;;;2.03;;
13985;SDS011;7067;51.832;8.296;2023-04-03T05:52:44;6.53;;;2.30;;
13985;SDS011;7067;51.832;8.296;2023-04-03T05:55:10;6.43;;;2.07;;
13985;SDS011;7067;51.832;8.296;2023-04-03T05:57:36;5.37;;;2.07;;
13985;SDS011;7067;51.832;8.296;2023-04-03T06:00:03;9.13;;;2.57;;
13985;SDS011;7067;51.832;8.296;2023-04-03T06:02:30;4.63;;;2.30;;
13985;SDS011;7067;51.832;8.296;2023-04-03T06:04:56;6.03;;;2.27;;
13985;SDS011;7067;51.832;8.296;2023-04-03T06:07:22;9.40;;;2.33;;
13985;SDS011;7067;51.832;8.296;2023-04-03T06:09:51;6.67;;;2.17;;
13985;SDS011;7067;51.832;8.296;2023-04-03T06:12:17;7.57;;;2.23;;
13985;SDS011;7067;51.832;8.296;2023-04-03T06:14:42;8.50;;;2.53;;
13985;SDS011;7067;51.832;8.296;2023-04-03T06:17:07;9.73;;;2.90;;
13985;SDS011;7067;51.832;8.296;2023-04-03T06:19:34;7.03;;;2.37;;
13985;SDS011;7067;51.832;8.296;2023-04-03T06:22:00;6.23;;;1.90;;
13985;SDS011;7067;51.832;8.296;2023-04-03T06:24:25;8.53;;;3.90;;
13985;SDS011;7067;51.832;8.296;2023-04-03T06:26:51;9.17;;;2.80;;
13985;SDS011;7067;51.832;8.296;2023-04-03T06:29:18;7.50;;;2.57;;
13985;SDS011;7067;51.832;8.296;2023-04-03T06:31:44;7.80;;;2.63;;
13985;SDS011;7067;51.832;8.296;2023-04-03T06:34:09;7.13;;;2.73;;
13985;SDS011;7067;51.832;8.296;2023-04-03T06:36:36;5.23;;;2.57;;
13985;SDS011;7067;51.832;8.296;2023-04-03T06:39:02;7.83;;;2.87;;
13985;SDS011;7067;51.832;8.296;2023-04-03T06:41:28;5.73;;;2.60;;
13985;SDS011;7067;51.832;8.296;2023-04-03T06:43:53;8.00;;;2.30;;
13985;SDS011;7067;51.832;8.296;2023-04-03T06:46:21;7.43;;;2.73;;
13985;SDS011;7067;51.832;8.296;2023-04-03T06:48:47;5.23;;;2.77;;
13985;SDS011;7067;51.832;8.296;2023-04-03T06:51:20;8.43;;;2.33;;
13985;SDS011;7067;51.832;8.296;2023-04-03T06:53:46;16.60;;;4.43;;
13985;SDS011;7067;51.832;8.296;2023-04-03T06:56:12;7.60;;;2.43;;
13985;SDS011;7067;51.832;8.296;2023-04-03T06:58:38;18.10;;;3.80;;
13985;SDS011;7067;51.832;8.296;2023-04-03T07:01:04;19.50;;;3.30;;
13985;SDS011;7067;51.832;8.296;2023-04-03T07:03:30;6.07;;;2.23;;
13985;SDS011;7067;51.832;8.296;2023-04-03T07:05:55;5.93;;;3.27;;
13985;SDS011;7067;51.832;8.296;2023-04-03T07:08:21;6.70;;;2.80;;
13985;SDS011;7067;51.832;8.296;2023-04-03T07:10:48;8.90;;;2.97;;
13985;SDS011;7067;51.832;8.296;2023-04-03T07:13:13;7.43;;;2.47;;
13985;SDS011;7067;51.832;8.296;2023-04-03T07:15:38;4.50;;;1.80;;
13985;SDS011;7067;51.832;8.296;2023-04-03T07:18:04;6.70;;;2.53;;
13985;SDS011;7067;51.832;8.296;2023-04-03T07:20:30;10.40;;;2.73;;
13985;SDS011;7067;51.832;8.296;2023-04-03T07:22:56;5.97;;;2.40;;
13985;SDS011;7067;51.832;8.296;2023-04-03T07:25:21;7.47;;;2.90;;
13985;SDS011;7067;51.832;8.296;2023-04-03T07:27:47;4.50;;;2.47;;
13985;SDS011;7067;51.832;8.296;2023-04-03T07:30:12;4.77;;;2.40;;
13985;SDS011;7067;51.832;8.296;2023-04-03T07:32:39;4.50;;;2.20;;
13985;SDS011;7067;51.832;8.296;2023-04-03T07:35:04;7.30;;;2.90;;
13985;SDS011;7067;51.832;8.296;2023-04-03T07:37:29;5.50;;;2.27;;
13985;SDS011;7067;51.832;8.296;2023-04-03T07:39:55;4.57;;;2.20;;
13985;SDS011;7067;51.832;8.296;2023-04-03T07:42:22;6.00;;;2.13;;
13985;SDS011;7067;51.832;8.296;2023-04-03T07:44:47;6.87;;;2.73;;
13985;SDS011;7067;51.832;8.296;2023-04-03T07:47:12;3.93;;;2.13;;
13985;SDS011;7067;51.832;8.296;2023-04-03T07:49:41;7.30;;;2.80;;
13985;SDS011;7067;51.832;8.296;2023-04-03T07:52:06;6.57;;;2.03;;
13985;SDS011;7067;51.832;8.296;2023-04-03T07:54:33;4.50;;;2.37;;
13985;SDS011;7067;51.832;8.296;2023-04-03T07:56:58;6.73;;;2.73;;
13985;SDS011;7067;51.832;8.296;2023-04-03T07:59:24;4.33;;;2.67;;
13985;SDS011;7067;51.832;8.296;2023-04-03T08:01:49;8.57;;;3.00;;
13985;SDS011;7067;51.832;8.296;2023-04-03T08:04:15;22.40;;;2.77;;
13985;SDS011;7067;51.832;8.296;2023-04-03T08:06:40;4.90;;;2.33;;
13985;SDS011;7067;51.832;8.296;2023-04-03T08:09:05;8.33;;;2.10;;
13985;SDS011;7067;51.832;8.296;2023-04-03T08:11:31;5.87;;;2.23;;
13985;SDS011;7067;51.832;8.296;2023-04-03T08:13:56;5.80;;;2.50;;
13985;SDS011;7067;51.832;8.296;2023-04-03T08:16:22;2.63;;;2.00;;
13985;SDS011;7067;51.832;8.296;2023-04-03T08:18:50;4.47;;;1.80;;
13985;SDS011;7067;51.832;8.296;2023-04-03T08:21:15;3.73;;;2.20;;
13985;SDS011;7067;51.832;8.296;2023-04-03T08:23:41;13.53;;;2.93;;
13985;SDS011;7067;51.832;8.296;2023-04-03T08:26:10;10.03;;;1.97;;
13985;SDS011;7067;51.832;8.296;2023-04-03T08:28:37;9.80;;;2.33;;
13985;SDS011;7067;51.832;8.296;2023-04-03T08:31:04;28.80;;;2.70;;
13985;SDS011;7067;51.832;8.296;2023-04-03T08:33:36;28.23;;;5.13;;
13985;SDS011;7067;51.832;8.296;2023-04-03T08:36:03;32.43;;;4.33;;
13985;SDS011;7067;51.832;8.296;2023-04-03T08:38:29;43.70;;;5.83;;
13985;SDS011;7067;51.832;8.296;2023-04-03T08:41:05;41.60;;;5.77;;
13985;SDS011;7067;51.832;8.296;2023-04-03T08:46:54;38.20;;;5.10;;
13985;SDS011;7067;51.832;8.296;2023-04-03T08:49:26;7.97;;;2.10;;
13985;SDS011;7067;51.832;8.296;2023-04-03T08:51:53;61.40;;;11.10;;
13985;SDS011;7067;51.832;8.296;2023-04-03T08:55:02;49.03;;;6.10;;
13985;SDS011;7067;51.832;8.296;2023-04-03T08:57:14;50.07;;;7.07;;
13985;SDS011;7067;51.832;8.296;2023-04-03T08:59:40;50.93;;;11.30;;
13985;SDS011;7067;51.832;8.296;2023-04-03T09:02:22;50.97;;;7.50;;
13985;SDS011;7067;51.832;8.296;2023-04-03T09:04:51;82.20;;;9.13;;
13985;SDS011;7067;51.832;8.296;2023-04-03T09:07:20;91.27;;;14.20;;
13985;SDS011;7067;51.832;8.296;2023-04-03T09:09:51;85.27;;;15.10;;
13985;SDS011;7067;51.832;8.296;2023-04-03T09:12:23;55.80;;;12.07;;
13985;SDS011;7067;51.832;8.296;2023-04-03T09:22:57;74.13;;;16.00;;
13985;SDS011;7067;51.832;8.296;2023-04-03T09:25:24;89.40;;;16.30;;
13985;SDS011;7067;51.832;8.296;2023-04-03T09:27:51;70.60;;;10.57;;
13985;SDS011;7067;51.832;8.296;2023-04-03T09:30:21;53.97;;;8.37;;
13985;SDS011;7067;51.832;8.296;2023-04-03T09:32:49;57.90;;;12.60;;
13985;SDS011;7067;51.832;8.296;2023-04-03T09:35:36;75.90;;;13.50;;
13985;SDS011;7067;51.832;8.296;2023-04-03T09:40:43;93.50;;;12.90;;
13985;SDS011;7067;51.832;8.296;2023-04-03T09:45:42;56.93;;;15.57;;
13985;SDS011;7067;51.832;8.296;2023-04-03T09:48:13;84.30;;;15.33;;
13985;SDS011;7067;51.832;8.296;2023-04-03T09:53:26;74.67;;;16.10;;
13985;SDS011;7067;51.832;8.296;2023-04-03T09:55:56;123.20;;;14.30;;
13985;SDS011;7067;51.832;8.296;2023-04-03T09:58:26;74.40;;;11.33;;
13985;SDS011;7067;51.832;8.296;2023-04-03T10:00:54;89.13;;;14.00;;
13985;SDS011;7067;51.832;8.296;2023-04-03T10:03:23;86.33;;;11.33;;
13985;SDS011;7067;51.832;8.296;2023-04-03T10:05:54;71.37;;;11.50;;
13985;SDS011;7067;51.832;8.296;2023-04-03T10:11:09;92.57;;;13.77;;
13985;SDS011;7067;51.832;8.296;2023-04-03T10:13:37;56.93;;;12.87;;
13985;SDS011;7067;51.832;8.296;2023-04-03T10:16:14;45.20;;;9.23;;
13985;SDS011;7067;51.832;8.296;2023-04-03T10:18:53;66.77;;;12.80;;
13985;SDS011;7067;51.832;8.296;2023-04-03T10:21:29;72.13;;;14.10;;
13985;SDS011;7067;51.832;8.296;2023-04-03T10:37:51;73.10;;;13.57;;
13985;SDS011;7067;51.832;8.296;2023-04-03T10:40:43;61.87;;;11.77;;
13985;SDS011;7067;51.832;8.296;2023-04-03T10:43:16;65.63;;;10.40;;
13985;SDS011;7067;51.832;8.296;2023-04-03T10:50:38;98.40;;;16.05;;
13985;SDS011;7067;51.832;8.296;2023-04-03T10:53:22;96.25;;;13.95;;
13985;SDS011;7067;51.832;8.296;2023-04-03T10:58:24;62.58;;;9.68;;
13985;SDS011;7067;51.832;8.296;2023-04-03T11:00:56;89.63;;;16.25;;
13985;SDS011;7067;51.832;8.296;2023-04-03T11:03:32;95.00;;;17.15;;
13985;SDS011;7067;51.832;8.296;2023-04-03T11:05:59;100.35;;;13.60;;
13985;SDS011;7067;51.832;8.296;2023-04-03T11:08:34;97.55;;;17.88;;
13985;SDS011;7067;51.832;8.296;2023-04-03T11:11:12;69.20;;;11.38;;
13985;SDS011;7067;51.832;8.296;2023-04-03T11:13:49;127.03;;;16.40;;
13985;SDS011;7067;51.832;8.296;2023-04-03T11:16:21;109.43;;;15.52;;
13985;SDS011;7067;51.832;8.296;2023-04-03T11:19:05;75.75;;;15.13;;
13985;SDS011;7067;51.832;8.296;2023-04-03T11:21:37;66.18;;;12.00;;
13985;SDS011;7067;51.832;8.296;2023-04-03T11:24:05;62.28;;;11.38;;
13985;SDS011;7067;51.832;8.296;2023-04-03T11:26:47;77.65;;;14.02;;
13985;SDS011;7067;51.832;8.296;2023-04-03T11:29:15;97.68;;;15.35;;
13985;SDS011;7067;51.832;8.296;2023-04-03T11:37:25;73.32;;;15.55;;
13985;SDS011;7067;51.832;8.296;2023-04-03T11:39:58;194.23;;;18.00;;
13985;SDS011;7067;51.832;8.296;2023-04-03T11:47:53;122.32;;;19.30;;
13985;SDS011;7067;51.832;8.296;2023-04-03T11:51:00;117.82;;;20.90;;
13985;SDS011;7067;51.832;8.296;2023-04-03T11:58:13;95.32;;;14.65;;
13985;SDS011;7067;51.832;8.296;2023-04-03T12:00:48;95.75;;;15.63;;
13985;SDS011;7067;51.832;8.296;2023-04-03T12:13:39;73.28;;;10.52;;
13985;SDS011;7067;51.832;8.296;2023-04-03T12:40:36;144.18;;;17.00;;
13985;SDS011;7067;51.832;8.296;2023-04-03T12:48:25;89.72;;;16.80;;
13985;SDS011;7067;51.832;8.296;2023-04-03T12:50:52;123.10;;;20.98;;
13985;SDS011;7067;51.832;8.296;2023-04-03T12:53:18;157.15;;;25.70;;
13985;SDS011;7067;51.832;8.296;2023-04-03T12:55:45;97.50;;;19.67;;
13985;SDS011;7067;51.832;8.296;2023-04-03T12:58:14;121.45;;;17.85;;
13985;SDS011;7067;51.832;8.296;2023-04-03T13:00:42;99.53;;;16.38;;
13985;SDS011;7067;51.832;8.296;2023-04-03T13:03:18;88.55;;;16.98;;
13985;SDS011;7067;51.832;8.296;2023-04-03T13:05:47;97.35;;;18.48;;
13985;SDS011;7067;51.832;8.296;2023-04-03T13:08:12;122.60;;;16.90;;
13985;SDS011;7067;51.832;8.296;2023-04-03T13:10:51;141.70;;;20.27;;
13985;SDS011;7067;51.832;8.296;2023-04-03T13:13:18;97.40;;;15.00;;
13985;SDS011;7067;51.832;8.296;2023-04-03T13:15:45;128.05;;;19.08;;
13985;SDS011;7067;51.832;8.296;2023-04-03T13:18:27;116.90;;;19.42;;
13985;SDS011;7067;51.832;8.296;2023-04-03T13:20:57;133.32;;;17.45;;
13985;SDS011;7067;51.832;8.296;2023-04-03T13:23:25;179.40;;;23.10;;
13985;SDS011;7067;51.832;8.296;2023-04-03T13:25:51;111.38;;;18.38;;
13985;SDS011;7067;51.832;8.296;2023-04-03T13:28:19;173.77;;;23.83;;
13985;SDS011;7067;51.832;8.296;2023-04-03T13:31:01;137.45;;;22.52;;
13985;SDS011;7067;51.832;8.296;2023-04-03T13:33:30;147.60;;;24.02;;
13985;SDS011;7067;51.832;8.296;2023-04-03T13:36:16;136.23;;;19.38;;
13985;SDS011;7067;51.832;8.296;2023-04-03T13:38:44;247.38;;;32.95;;
13985;SDS011;7067;51.832;8.296;2023-04-03T13:44:25;190.90;;;40.05;;
13985;SDS011;7067;51.832;8.296;2023-04-03T13:46:57;271.75;;;32.28;;
13985;SDS011;7067;51.832;8.296;2023-04-03T13:49:33;135.20;;;23.70;;
13985;SDS011;7067;51.832;8.296;2023-04-03T13:52:02;284.25;;;28.45;;
13985;SDS011;7067;51.832;8.296;2023-04-03T13:54:43;132.50;;;20.33;;
13985;SDS011;7067;51.832;8.296;2023-04-03T13:57:12;196.13;;;22.63;;
13985;SDS011;7067;51.832;8.296;2023-04-03T13:59:39;167.55;;;26.92;;
13985;SDS011;7067;51.832;8.296;2023-04-03T14:04:45;116.07;;;18.83;;
13985;SDS011;7067;51.832;8.296;2023-04-03T14:07:11;184.82;;;23.27;;
13985;SDS011;7067;51.832;8.296;2023-04-03T14:09:37;146.02;;;19.75;;
13985;SDS011;7067;51.832;8.296;2023-04-03T14:12:07;161.82;;;24.90;;
13985;SDS011;7067;51.832;8.296;2023-04-03T14:14:36;166.20;;;20.52;;
13985;SDS011;7067;51.832;8.296;2023-04-03T14:17:03;109.15;;;21.50;;
13985;SDS011;7067;51.832;8.296;2023-04-03T14:19:39;220.38;;;24.50;;
13985;SDS011;7067;51.832;8.296;2023-04-03T14:22:27;91.07;;;18.13;;
13985;SDS011;7067;51.832;8.296;2023-04-03T14:24:55;126.38;;;17.02;;
13985;SDS011;7067;51.832;8.296;2023-04-03T14:27:26;186.90;;;21.85;;
13985;SDS011;7067;51.832;8.296;2023-04-03T14:29:54;146.73;;;16.77;;
13985;SDS011;7067;51.832;8.296;2023-04-03T14:32:21;86.18;;;15.80;;
13985;SDS011;7067;51.832;8.296;2023-04-03T14:34:48;115.65;;;22.15;;
13985;SDS011;7067;51.832;8.296;2023-04-03T14:37:19;121.55;;;17.77;;
13985;SDS011;7067;51.832;8.296;2023-04-03T14:39:48;264.45;;;27.13;;
13985;SDS011;7067;51.832;8.296;2023-04-03T14:42:15;116.22;;;21.38;;
13985;SDS011;7067;51.832;8.296;2023-04-03T14:44:43;206.20;;;29.85;;
13985;SDS011;7067;51.832;8.296;2023-04-03T14:47:09;113.55;;;20.17;;
13985;SDS011;7067;51.832;8.296;2023-04-03T14:49:36;176.63;;;23.63;;
13985;SDS011;7067;51.832;8.296;2023-04-03T14:52:02;150.68;;;24.48;;
13985;SDS011;7067;51.832;8.296;2023-04-03T14:54:27;208.35;;;24.95;;
13985;SDS011;7067;51.832;8.296;2023-04-03T14:56:54;137.75;;;22.90;;
13985;SDS011;7067;51.832;8.296;2023-04-03T14:59:20;223.85;;;28.50;;
13985;SDS011;7067;51.832;8.296;2023-04-03T15:01:46;224.50;;;21.88;;
13985;SDS011;7067;51.832;8.296;2023-04-03T15:04:13;238.77;;;24.40;;
13985;SDS011;7067;51.832;8.296;2023-04-03T15:06:43;159.75;;;20.80;;
13985;SDS011;7067;51.832;8.296;2023-04-03T15:09:18;192.50;;;31.67;;
13985;SDS011;7067;51.832;8.296;2023-04-03T15:11:46;159.32;;;23.25;;
13985;SDS011;7067;51.832;8.296;2023-04-03T15:14:12;166.77;;;22.02;;
13985;SDS011;7067;51.832;8.296;2023-04-03T15:16:38;383.05;;;53.03;;
13985;SDS011;7067;51.832;8.296;2023-04-03T15:19:03;289.00;;;37.70;;
13985;SDS011;7067;51.832;8.296;2023-04-03T15:21:28;299.60;;;50.10;;
13985;SDS011;7067;51.832;8.296;2023-04-03T15:23:54;213.93;;;30.10;;
13985;SDS011;7067;51.832;8.296;2023-04-03T15:26:19;376.33;;;42.90;;
13985;SDS011;7067;51.832;8.296;2023-04-03T15:28:45;224.25;;;25.75;;
13985;SDS011;7067;51.832;8.296;2023-04-03T15:31:11;502.77;;;113.13;;
13985;SDS011;7067;51.832;8.296;2023-04-03T15:33:36;365.48;;;52.35;;
13985;SDS011;7067;51.832;8.296;2023-04-03T15:36:02;222.23;;;30.02;;
13985;SDS011;7067;51.832;8.296;2023-04-03T15:38:28;177.98;;;23.73;;
13985;SDS011;7067;51.832;8.296;2023-04-03T15:40:54;225.63;;;33.85;;
13985;SDS011;7067;51.832;8.296;2023-04-03T15:43:20;305.92;;;59.20;;
13985;SDS011;7067;51.832;8.296;2023-04-03T15:45:45;1999.90;;;793.20;;
13985;SDS011;7067;51.832;8.296;2023-04-03T15:48:11;1999.90;;;908.60;;
13985;SDS011;7067;51.832;8.296;2023-04-03T15:50:37;1999.90;;;690.47;;
13985;SDS011;7067;51.832;8.296;2023-04-03T15:53:02;1999.90;;;337.05;;
13985;SDS011;7067;51.832;8.296;2023-04-03T15:55:28;1999.90;;;999.90;;
13985;SDS011;7067;51.832;8.296;2023-04-03T15:57:55;1999.90;;;999.90;;
13985;SDS011;7067;51.832;8.296;2023-04-03T16:00:22;1999.90;;;999.90;;
13985;SDS011;7067;51.832;8.296;2023-04-03T16:02:48;1999.90;;;999.90;;
13985;SDS011;7067;51.832;8.296;2023-04-03T16:05:16;1999.90;;;999.90;;
13985;SDS011;7067;51.832;8.296;2023-04-03T16:07:42;1999.90;;;999.90;;
13985;SDS011;7067;51.832;8.296;2023-04-03T16:10:08;1999.90;;;999.90;;
13985;SDS011;7067;51.832;8.296;2023-04-03T16:12:34;1999.90;;;999.90;;
13985;SDS011;7067;51.832;8.296;2023-04-03T16:15:00;1999.90;;;999.90;;
13985;SDS011;7067;51.832;8.296;2023-04-03T16:17:26;1999.90;;;581.50;;
13985;SDS011;7067;51.832;8.296;2023-04-03T16:19:52;1999.90;;;311.63;;
13985;SDS011;7067;51.832;8.296;2023-04-03T16:22:19;1999.90;;;590.78;;
13985;SDS011;7067;51.832;8.296;2023-04-03T16:24:44;1650.20;;;442.98;;
13985;SDS011;7067;51.832;8.296;2023-04-03T16:27:09;902.92;;;225.88;;
13985;SDS011;7067;51.832;8.296;2023-04-03T16:29:35;342.98;;;86.80;;
13985;SDS011;7067;51.832;8.296;2023-04-03T16:32:01;469.42;;;108.45;;
13985;SDS011;7067;51.832;8.296;2023-04-03T16:34:27;448.23;;;73.32;;
13985;SDS011;7067;51.832;8.296;2023-04-03T16:36:55;1296.57;;;254.77;;